Terminal Aerodrome Forecast
Issued by NWS Bismarck, ND

Home | Current Version | Previous Version | Graphics & Text | Print | Product List | Glossary On
Versions: 1 2 3 4 5 6 7 8 9 10 11 12 13 14 15 16 17 18 19 20 21 22
023
FTUS43 KBIS 281136
TAFISN
TAF
KISN 281136Z 2812/2912 08006KT P6SM OVC008
     FM281500 09006KT P6SM BKN015
     FM281700 11006KT P6SM BKN040
     FM282000 10006KT P6SM VCTS BKN060CB
      TEMPO 2821/2823 4SM -TSRA BKN040CB
     FM290000 27006KT P6SM BKN050
     FM290200 28006KT P6SM SCT250=

USA.gov is the U.S. government's official web portal to all federal, state and local government web resources and services.